Virginiborg — PBDL — position and weather

sailwx.info

Track history (hours):
 
Tides and Currents Weather Stations Pressure Air Temp Water Temp Dewpoint Dewpoint Depression Visibility Wind Speed Wind Dir Waves Ship Positions

Virginiborg

Last reported at 2016-May-28 00:11 UTC. Time now 2016-May-28 06:00 UTC.
Position N 42°21' W 080°34'.

Length 132 m; draft 6.8 m.

Type: Cargo ship. MMSI: 244632000.

Date/timePositionNaut miles runAvg speedWind from/ knotsBaromVisibWave heightAir tempDewpointWater temp
2016-May-28 00:11N 42°21' W 080°34'812.0
2016-May-27 23:33N 42°24' W 080°25'1212.1
2016-May-27 22:33N 42°29' W 080°09'1211.8
2016-May-27 21:32N 42°34' W 079°55'1411.7
2016-May-27 20:20N 42°41' W 079°38'33 6.7
2016-May-27 15:23N 43°08' W 079°12'0 0.2
2016-May-27 14:24N 43°08' W 079°12'1 0.9
2016-May-27 13:14N 43°09' W 079°12'2 1.9
2016-May-27 12:22N 43°11' W 079°12'1 1.6
2016-May-27 11:33N 43°12' W 079°12'2 1.8
2016-May-27 10:33N 43°14' W 079°13'7 7.4
2016-May-27 09:33N 43°20' W 079°09'245 9.8
2016-May-26 08:33N 45°13' W 074°05'8 8.4
2016-May-26 07:33N 45°18' W 073°56'1 1.0
2016-May-26 06:33N 45°19' W 073°55'8 8.4
2016-May-26 05:33N 45°24' W 073°45'8 7.7
2016-May-26 04:33N 45°24' W 073°34'1 0.5
2016-May-26 03:33N 45°24' W 073°34'5 4.5
2016-May-26 02:29N 45°29' W 073°31'3 2.8
2016-May-26 01:27N 45°31' W 073°32'7 7.8
2016-May-26 00:32N 45°38' W 073°29'9 9.4
2016-May-25 23:33N 45°46' W 073°22'5 5.3
2016-May-25 22:33N 45°50' W 073°17'0 0.0
2016-May-25 21:33N 45°50' W 073°17'0 0.0
2016-May-25 20:33N 45°50' W 073°17'0 0.0
2016-May-25 19:32N 45°50' W 073°17'0 0.0
2016-May-25 18:32N 45°50' W 073°17'0 0.0
2016-May-25 17:31N 45°50' W 073°17'0 0.0
2016-May-25 16:31N 45°50' W 073°17'0 0.0
2016-May-25 15:33N 45°50' W 073°17'0 0.0
2016-May-25 14:33N 45°50' W 073°17'0 0.0
2016-May-25 13:33N 45°50' W 073°17'0 0.0
2016-May-25 12:29N 45°50' W 073°17'0 0.0
2016-May-25 11:29N 45°50' W 073°17'0 0.0
2016-May-25 10:31N 45°50' W 073°17'0 0.0
2016-May-25 09:31N 45°50' W 073°17'0 0.0
2016-May-25 08:33N 45°50' W 073°17'0 0.0
2016-May-25 07:33N 45°50' W 073°17'0 0.0
2016-May-25 06:32N 45°50' W 073°17'0 0.0
2016-May-25 05:32N 45°50' W 073°17'0 0.0
2016-May-25 04:32N 45°50' W 073°17'0 0.0
2016-May-25 03:31N 45°50' W 073°17'0 0.0
2016-May-25 02:22N 45°50' W 073°17'0 0.0
2016-May-25 01:30N 45°50' W 073°17'0 0.0
2016-May-25 00:33N 45°50' W 073°17'0 0.0
2016-May-24 23:32N 45°50' W 073°17'0 0.0
2016-May-24 22:32N 45°50' W 073°17'0 0.0
2016-May-24 21:32N 45°50' W 073°17'1 0.6
2016-May-24 20:33N 45°51' W 073°17'8 7.9
2016-May-24 19:33N 45°58' W 073°12'8 8.1
2016-May-24 18:33N 46°04' W 073°04'9 9.1
2016-May-24 17:33N 46°10' W 072°56'1210.5
2016-May-24 16:22N 46°16' W 072°39'27 8.6
2016-May-24 13:14N 46°33' W 072°09'  
Track history (hours):
 
Tides and Currents Weather Stations Pressure Air Temp Water Temp Dewpoint Dewpoint Depression Visibility Wind Speed Wind Dir Waves Ship Positions

Virginiborg

Last reported at 2016-May-28 00:11 UTC. Time now 2016-May-28 06:00 UTC.
Position N 42°21' W 080°34'.

Length 132 m; draft 6.8 m.

Type: Cargo ship. MMSI: 244632000.

Date/timePositionNaut miles runAvg speedWind from/ knotsBaromVisibWave heightAir tempDewpointWater temp
2016-May-28 00:11N 42°21' W 080°34'812.0
2016-May-27 23:33N 42°24' W 080°25'1212.1
2016-May-27 22:33N 42°29' W 080°09'1211.8
2016-May-27 21:32N 42°34' W 079°55'1411.7
2016-May-27 20:20N 42°41' W 079°38'33 6.7
2016-May-27 15:23N 43°08' W 079°12'0 0.2
2016-May-27 14:24N 43°08' W 079°12'1 0.9
2016-May-27 13:14N 43°09' W 079°12'2 1.9
2016-May-27 12:22N 43°11' W 079°12'1 1.6
2016-May-27 11:33N 43°12' W 079°12'2 1.8
2016-May-27 10:33N 43°14' W 079°13'7 7.4
2016-May-27 09:33N 43°20' W 079°09'245 9.8
2016-May-26 08:33N 45°13' W 074°05'8 8.4
2016-May-26 07:33N 45°18' W 073°56'1 1.0
2016-May-26 06:33N 45°19' W 073°55'8 8.4
2016-May-26 05:33N 45°24' W 073°45'8 7.7
2016-May-26 04:33N 45°24' W 073°34'1 0.5
2016-May-26 03:33N 45°24' W 073°34'5 4.5
2016-May-26 02:29N 45°29' W 073°31'3 2.8
2016-May-26 01:27N 45°31' W 073°32'7 7.8
2016-May-26 00:32N 45°38' W 073°29'9 9.4
2016-May-25 23:33N 45°46' W 073°22'5 5.3
2016-May-25 22:33N 45°50' W 073°17'0 0.0
2016-May-25 21:33N 45°50' W 073°17'0 0.0
2016-May-25 20:33N 45°50' W 073°17'0 0.0
2016-May-25 19:32N 45°50' W 073°17'0 0.0
2016-May-25 18:32N 45°50' W 073°17'0 0.0
2016-May-25 17:31N 45°50' W 073°17'0 0.0
2016-May-25 16:31N 45°50' W 073°17'0 0.0
2016-May-25 15:33N 45°50' W 073°17'0 0.0
2016-May-25 14:33N 45°50' W 073°17'0 0.0
2016-May-25 13:33N 45°50' W 073°17'0 0.0
2016-May-25 12:29N 45°50' W 073°17'0 0.0
2016-May-25 11:29N 45°50' W 073°17'0 0.0
2016-May-25 10:31N 45°50' W 073°17'0 0.0
2016-May-25 09:31N 45°50' W 073°17'0 0.0
2016-May-25 08:33N 45°50' W 073°17'0 0.0
2016-May-25 07:33N 45°50' W 073°17'0 0.0
2016-May-25 06:32N 45°50' W 073°17'0 0.0
2016-May-25 05:32N 45°50' W 073°17'0 0.0
2016-May-25 04:32N 45°50' W 073°17'0 0.0
2016-May-25 03:31N 45°50' W 073°17'0 0.0
2016-May-25 02:22N 45°50' W 073°17'0 0.0
2016-May-25 01:30N 45°50' W 073°17'0 0.0
2016-May-25 00:33N 45°50' W 073°17'0 0.0
2016-May-24 23:32N 45°50' W 073°17'0 0.0
2016-May-24 22:32N 45°50' W 073°17'0 0.0
2016-May-24 21:32N 45°50' W 073°17'1 0.6
2016-May-24 20:33N 45°51' W 073°17'8 7.9
2016-May-24 19:33N 45°58' W 073°12'8 8.1
2016-May-24 18:33N 46°04' W 073°04'9 9.1
2016-May-24 17:33N 46°10' W 072°56'1210.5
2016-May-24 16:22N 46°16' W 072°39'27 8.6
2016-May-24 13:14N 46°33' W 072°09'  

Dump ship's entire track history